Time;durP1;ratioP1;P1;durP2;ratioP2;P2;SDS_P1;SDS_P2;PMS_P1;PMS_P2;Temp;Humidity;BMP_temperature;BMP_pressure;BME280_temperature;BME280_humidity;BME280_pressure;Samples;Min_cycle;Max_cycle;Signal;HPM_P1;HPM_P2
2021/12/18 00:00:12;;;;;;;34.17;20.57;;;;;;;;;;5110340;28;20444;-64
2021/12/18 00:02:40;;;;;;;30.47;18.33;;;;;;;;;;5102785;28;20562;-63
2021/12/18 00:05:08;;;;;;;30.03;19.37;;;;;;;;;;5090750;28;20261;-63
2021/12/18 00:07:36;;;;;;;28.40;18.37;;;;;;;;;;5097224;28;20487;-64
2021/12/18 00:10:07;;;;;;;30.93;17.20;;;;;;;;;;5099925;28;20439;-63
2021/12/18 00:12:35;;;;;;;34.27;17.37;;;;;;;;;;5100120;28;20644;-64
2021/12/18 00:15:03;;;;;;;25.87;16.07;;;;;;;;;;5099725;28;20449;-63
2021/12/18 00:17:30;;;;;;;27.07;17.27;;;;;;;;;;5099738;28;20210;-64
2021/12/18 00:19:58;;;;;;;26.93;17.33;;;;;;;;;;5099088;28;20480;-64
2021/12/18 00:22:26;;;;;;;25.77;16.93;;;;;;;;;;5099667;28;20229;-63
2021/12/18 00:24:54;;;;;;;25.53;17.10;;;;;;;;;;5099682;28;20210;-63
2021/12/18 00:27:24;;;;;;;30.00;18.20;;;;;;;;;;5098417;28;20217;-63
2021/12/18 00:29:51;;;;;;;29.23;17.27;;;;;;;;;;5095386;28;20231;-63
2021/12/18 00:32:19;;;;;;;27.73;16.80;;;;;;;;;;5099451;28;20210;-64
2021/12/18 00:34:47;;;;;;;31.43;17.07;;;;;;;;;;5099421;28;20206;-63
2021/12/18 00:37:15;;;;;;;54.37;31.33;;;;;;;;;;5097334;28;20206;-63
2021/12/18 00:39:52;;;;;;;29.67;16.70;;;;;;;;;;5099031;28;20290;-64
2021/12/18 00:42:33;;;;;;;29.83;17.17;;;;;;;;;;5099215;28;20205;-63
2021/12/18 00:45:03;;;;;;;26.23;17.07;;;;;;;;;;5099231;28;20206;-63
2021/12/18 00:47:32;;;;;;;27.67;17.30;;;;;;;;;;5099234;28;20447;-63
2021/12/18 00:50:00;;;;;;;26.67;16.67;;;;;;;;;;5099081;28;20260;-63
2021/12/18 00:52:28;;;;;;;28.53;17.13;;;;;;;;;;5097905;28;20487;-63
2021/12/18 00:54:55;;;;;;;27.80;18.33;;;;;;;;;;5098781;28;20227;-64
2021/12/18 00:57:23;;;;;;;29.37;16.70;;;;;;;;;;5098950;28;20209;-63
2021/12/18 00:59:54;;;;;;;29.60;18.00;;;;;;;;;;5098900;28;20226;-63
2021/12/18 01:02:23;;;;;;;29.13;16.97;;;;;;;;;;5099147;28;20216;-63
2021/12/18 01:04:51;;;;;;;25.77;16.17;;;;;;;;;;5097381;28;20198;-64
2021/12/18 01:07:19;;;;;;;28.90;17.60;;;;;;;;;;5097446;28;20237;-63
2021/12/18 01:09:58;;;;;;;30.00;17.47;;;;;;;;;;5098396;28;20232;-63
2021/12/18 01:12:31;;;;;;;25.23;17.27;;;;;;;;;;5098778;28;20521;-63
2021/12/18 01:15:12;;;;;;;29.77;17.30;;;;;;;;;;5098649;28;20803;-63
2021/12/18 01:23:12;;;;;;;31.37;17.70;;;;;;;;;;5089267;28;20483;-63
2021/12/18 01:25:40;;;;;;;33.80;19.80;;;;;;;;;;5098486;28;20447;-63
2021/12/18 01:28:08;;;;;;;30.60;18.20;;;;;;;;;;5096901;28;20475;-63
2021/12/18 01:30:36;;;;;;;33.93;19.27;;;;;;;;;;5098205;28;20448;-63
2021/12/18 01:33:05;;;;;;;30.23;18.47;;;;;;;;;;5098329;28;20440;-63
2021/12/18 01:35:33;;;;;;;31.00;18.50;;;;;;;;;;5097712;28;20939;-63
2021/12/18 01:38:01;;;;;;;32.83;19.57;;;;;;;;;;5098032;28;20472;-63
2021/12/18 01:40:29;;;;;;;30.57;18.73;;;;;;;;;;5092315;28;20443;-63
2021/12/18 01:46:14;;;;;;;29.50;18.23;;;;;;;;;;5097959;28;20446;-63
2021/12/18 01:52:00;;;;;;;31.07;18.57;;;;;;;;;;5096151;28;20456;-63
2021/12/18 01:54:29;;;;;;;33.40;18.83;;;;;;;;;;5084445;28;20505;-63
2021/12/18 01:56:59;;;;;;;31.03;18.50;;;;;;;;;;5097714;28;20526;-63
2021/12/18 01:59:33;;;;;;;30.67;18.23;;;;;;;;;;5098093;28;20603;-63
2021/12/18 02:02:01;;;;;;;34.07;19.27;;;;;;;;;;5096754;28;20447;-63
2021/12/18 02:04:30;;;;;;;32.47;19.50;;;;;;;;;;5097635;28;20479;-63
2021/12/18 02:06:59;;;;;;;35.57;19.47;;;;;;;;;;5097551;28;20485;-62
2021/12/18 02:09:37;;;;;;;36.23;19.43;;;;;;;;;;5096762;28;20489;-63
2021/12/18 02:12:05;;;;;;;34.73;20.17;;;;;;;;;;5097760;28;20534;-63
2021/12/18 02:19:34;;;;;;;35.97;20.17;;;;;;;;;;5097485;28;20442;-63
2021/12/18 02:20:24;;;;;;;35.70;21.13;;;;;;;;;;5096627;28;20930;-62
2021/12/18 02:22:54;;;;;;;35.20;21.10;;;;;;;;;;5097123;28;20446;-62
2021/12/18 02:25:23;;;;;;;37.70;21.27;;;;;;;;;;5097498;28;20485;-62
2021/12/18 02:27:52;;;;;;;34.03;19.80;;;;;;;;;;5097392;28;20449;-62
2021/12/18 02:30:22;;;;;;;31.50;19.57;;;;;;;;;;5097732;28;20447;-63
2021/12/18 02:32:50;;;;;;;32.30;19.70;;;;;;;;;;5082653;28;20455;-63
2021/12/18 02:35:28;;;;;;;32.43;19.03;;;;;;;;;;5097668;28;20501;-62
2021/12/18 02:38:07;;;;;;;33.30;20.60;;;;;;;;;;5097154;28;20440;-63
2021/12/18 02:40:52;;;;;;;32.10;18.90;;;;;;;;;;5090087;28;20449;-63
2021/12/18 02:43:23;;;;;;;31.30;18.60;;;;;;;;;;5097409;28;20443;-63
2021/12/18 02:45:54;;;;;;;38.80;19.60;;;;;;;;;;5097598;28;20452;-62
2021/12/18 02:48:22;;;;;;;33.40;19.40;;;;;;;;;;5096376;28;20475;-63
2021/12/18 02:50:52;;;;;;;33.70;18.93;;;;;;;;;;5099325;28;20877;-63
2021/12/18 02:53:21;;;;;;;33.43;18.53;;;;;;;;;;5101164;28;20450;-63
2021/12/18 02:55:53;;;;;;;34.10;19.60;;;;;;;;;;5104565;28;21002;-62
2021/12/18 02:58:21;;;;;;;33.60;19.10;;;;;;;;;;5104694;28;20964;-63
2021/12/18 03:00:50;;;;;;;32.70;19.07;;;;;;;;;;5100586;28;20456;-63
2021/12/18 03:03:19;;;;;;;32.37;19.10;;;;;;;;;;5099188;28;20472;-63
2021/12/18 03:05:56;;;;;;;33.10;18.17;;;;;;;;;;5105769;28;20502;-63
2021/12/18 03:08:38;;;;;;;29.40;17.30;;;;;;;;;;5110828;28;20446;-63
2021/12/18 03:22:43;;;;;;;28.20;17.17;;;;;;;;;;5095828;28;20946;-63
2021/12/18 03:25:19;;;;;;;29.23;17.37;;;;;;;;;;5097970;28;20478;-63
2021/12/18 03:27:47;;;;;;;29.93;17.73;;;;;;;;;;5096554;28;20447;-63
2021/12/18 03:30:16;;;;;;;27.63;17.70;;;;;;;;;;5099633;28;20814;-63
2021/12/18 03:32:44;;;;;;;29.97;17.70;;;;;;;;;;5099420;28;20431;-63
2021/12/18 03:35:13;;;;;;;30.17;18.30;;;;;;;;;;5098878;28;20497;-63
2021/12/18 03:37:41;;;;;;;30.87;17.97;;;;;;;;;;5098673;28;20459;-62
2021/12/18 03:40:10;;;;;;;31.87;18.97;;;;;;;;;;5099727;28;20870;-62
2021/12/18 03:42:40;;;;;;;27.53;16.23;;;;;;;;;;5100140;28;20443;-62
2021/12/18 03:45:08;;;;;;;30.60;18.63;;;;;;;;;;5100381;28;20486;-63
2021/12/18 03:47:36;;;;;;;31.90;17.50;;;;;;;;;;5100494;28;20446;-62
2021/12/18 03:50:05;;;;;;;29.53;17.83;;;;;;;;;;5100311;28;20467;-62
2021/12/18 03:52:33;;;;;;;30.30;19.50;;;;;;;;;;5098380;28;20461;-63
2021/12/18 03:55:01;;;;;;;32.47;17.13;;;;;;;;;;5098511;28;20439;-62
2021/12/18 03:57:29;;;;;;;31.23;18.10;;;;;;;;;;5098403;28;20431;-63
2021/12/18 03:59:58;;;;;;;27.97;16.30;;;;;;;;;;5099091;28;20463;-63
2021/12/18 04:02:26;;;;;;;30.87;16.77;;;;;;;;;;5096542;28;20468;-64
2021/12/18 04:04:54;;;;;;;31.60;18.03;;;;;;;;;;5098740;28;20566;-63
2021/12/18 04:07:22;;;;;;;31.57;17.53;;;;;;;;;;5097252;28;20468;-62
2021/12/18 04:09:51;;;;;;;31.57;17.17;;;;;;;;;;5099067;28;20531;-63
2021/12/18 04:12:19;;;;;;;30.63;17.93;;;;;;;;;;5098661;28;20442;-63
2021/12/18 04:14:46;;;;;;;28.43;15.23;;;;;;;;;;5098837;28;20504;-63
2021/12/18 04:17:16;;;;;;;25.97;16.47;;;;;;;;;;5097547;28;20451;-63
2021/12/18 04:19:44;;;;;;;27.87;16.07;;;;;;;;;;5095783;28;20463;-63
2021/12/18 04:22:12;;;;;;;25.43;15.23;;;;;;;;;;5099725;28;20440;-62
2021/12/18 04:24:40;;;;;;;24.07;14.90;;;;;;;;;;5098616;28;20509;-62
2021/12/18 04:27:08;;;;;;;26.93;15.13;;;;;;;;;;5099202;28;20446;-63
2021/12/18 04:29:36;;;;;;;25.40;12.97;;;;;;;;;;5099541;28;20825;-63
2021/12/18 04:32:04;;;;;;;23.03;12.77;;;;;;;;;;5099315;28;20440;-62
2021/12/18 04:34:33;;;;;;;20.40;11.63;;;;;;;;;;5099634;28;20450;-62
2021/12/18 04:37:01;;;;;;;22.23;12.30;;;;;;;;;;5098400;28;20966;-63
2021/12/18 04:39:29;;;;;;;20.40;11.97;;;;;;;;;;5097611;28;20483;-62
2021/12/18 04:41:58;;;;;;;18.37;9.57;;;;;;;;;;5099434;28;20446;-62
2021/12/18 04:44:26;;;;;;;15.83;9.77;;;;;;;;;;5099301;28;20443;-63
2021/12/18 04:46:54;;;;;;;15.30;8.63;;;;;;;;;;5099007;28;20463;-63
2021/12/18 04:49:22;;;;;;;14.10;8.17;;;;;;;;;;5099253;28;20474;-62
2021/12/18 04:51:51;;;;;;;16.33;9.20;;;;;;;;;;5099102;28;20455;-63
2021/12/18 04:54:19;;;;;;;15.27;8.87;;;;;;;;;;5098135;28;20942;-63
2021/12/18 04:56:47;;;;;;;13.00;9.10;;;;;;;;;;5098165;28;20463;-63
2021/12/18 04:59:15;;;;;;;16.07;9.73;;;;;;;;;;5098988;28;20474;-63
2021/12/18 05:01:43;;;;;;;19.13;10.27;;;;;;;;;;5099153;28;20450;-62
2021/12/18 05:04:13;;;;;;;18.47;11.23;;;;;;;;;;5098803;28;20447;-63
2021/12/18 05:06:44;;;;;;;22.60;10.90;;;;;;;;;;5097354;28;20487;-62
2021/12/18 05:09:14;;;;;;;19.93;12.27;;;;;;;;;;5098424;28;20460;-63
2021/12/18 05:11:43;;;;;;;26.10;13.67;;;;;;;;;;5098534;28;20821;-62
2021/12/18 05:14:11;;;;;;;22.10;13.50;;;;;;;;;;5098586;28;20522;-63
2021/12/18 05:16:39;;;;;;;19.60;12.67;;;;;;;;;;5098754;28;20443;-62
2021/12/18 05:19:07;;;;;;;24.30;13.70;;;;;;;;;;5098786;28;20463;-63
2021/12/18 05:21:36;;;;;;;21.77;13.60;;;;;;;;;;5097866;28;20455;-62
2021/12/18 05:24:04;;;;;;;23.43;13.57;;;;;;;;;;5098441;28;20446;-62
2021/12/18 05:26:34;;;;;;;24.87;13.40;;;;;;;;;;5097571;28;21001;-63
2021/12/18 05:29:02;;;;;;;25.77;13.17;;;;;;;;;;5097359;28;20467;-62
2021/12/18 05:31:30;;;;;;;29.53;13.87;;;;;;;;;;5098575;28;20440;-62
2021/12/18 05:34:00;;;;;;;25.03;13.47;;;;;;;;;;5097479;28;20439;-63
2021/12/18 05:36:35;;;;;;;28.40;13.60;;;;;;;;;;5097344;28;20447;-63
2021/12/18 05:39:04;;;;;;;21.43;12.60;;;;;;;;;;5097539;28;20554;-63
2021/12/18 05:41:34;;;;;;;27.80;13.63;;;;;;;;;;5098351;28;20450;-63
2021/12/18 05:44:02;;;;;;;24.30;12.70;;;;;;;;;;5097007;28;20451;-63
2021/12/18 05:46:30;;;;;;;19.13;11.60;;;;;;;;;;5097904;28;20836;-63
2021/12/18 05:48:58;;;;;;;23.83;11.57;;;;;;;;;;5098023;28;20465;-63
2021/12/18 05:51:26;;;;;;;17.77;10.23;;;;;;;;;;5097909;28;20436;-63
2021/12/18 05:53:54;;;;;;;22.33;11.33;;;;;;;;;;5097742;28;20439;-63
2021/12/18 05:56:23;;;;;;;21.97;12.40;;;;;;;;;;5096936;28;20456;-63
2021/12/18 05:58:52;;;;;;;24.23;12.23;;;;;;;;;;5097547;28;21016;-63
2021/12/18 06:01:20;;;;;;;23.00;12.13;;;;;;;;;;5098123;28;20439;-63
2021/12/18 06:03:48;;;;;;;20.07;10.77;;;;;;;;;;5098027;28;20446;-63
2021/12/18 06:06:16;;;;;;;20.83;10.87;;;;;;;;;;5096504;28;20526;-63
2021/12/18 06:08:44;;;;;;;20.33;10.17;;;;;;;;;;5097518;28;20827;-63
2021/12/18 06:11:15;;;;;;;20.70;11.07;;;;;;;;;;5097816;28;20443;-63
2021/12/18 06:13:43;;;;;;;22.30;12.53;;;;;;;;;;5097883;28;20501;-62
2021/12/18 06:16:13;;;;;;;19.97;11.63;;;;;;;;;;5097431;28;20931;-62
2021/12/18 06:18:44;;;;;;;25.23;12.30;;;;;;;;;;5097430;28;20463;-62
2021/12/18 06:21:13;;;;;;;21.80;12.03;;;;;;;;;;5097166;28;20467;-62
2021/12/18 06:23:41;;;;;;;25.90;11.53;;;;;;;;;;5097509;28;20440;-62
2021/12/18 06:26:09;;;;;;;25.43;12.50;;;;;;;;;;5097811;28;20486;-62
2021/12/18 06:28:37;;;;;;;20.10;11.43;;;;;;;;;;5096027;28;20833;-62
2021/12/18 06:31:26;;;;;;;20.80;11.27;;;;;;;;;;5097334;28;20451;-63
2021/12/18 06:33:54;;;;;;;21.97;11.33;;;;;;;;;;5097510;28;20443;-62
2021/12/18 06:36:23;;;;;;;20.60;11.40;;;;;;;;;;5096770;28;20455;-63
2021/12/18 06:38:51;;;;;;;20.13;11.20;;;;;;;;;;5097168;28;20542;-63
2021/12/18 06:41:19;;;;;;;27.10;12.70;;;;;;;;;;5101534;28;21017;-62
2021/12/18 06:43:47;;;;;;;22.17;11.50;;;;;;;;;;5101495;28;20467;-62
2021/12/18 06:46:14;;;;;;;20.23;10.23;;;;;;;;;;5101285;28;20843;-62
2021/12/18 06:48:46;;;;;;;16.77;9.93;;;;;;;;;;5100217;28;20503;-62
2021/12/18 06:51:16;;;;;;;20.10;11.67;;;;;;;;;;5100666;28;20950;-61
2021/12/18 06:53:44;;;;;;;21.63;10.57;;;;;;;;;;5100948;28;20820;-61
2021/12/18 06:56:12;;;;;;;20.03;10.07;;;;;;;;;;5100297;28;20542;-61
2021/12/18 06:58:40;;;;;;;21.70;10.60;;;;;;;;;;5099255;28;20518;-61
2021/12/18 07:01:08;;;;;;;17.77;9.40;;;;;;;;;;5100929;28;20446;-60
2021/12/18 07:03:36;;;;;;;16.20;9.13;;;;;;;;;;5095683;28;20964;-60
2021/12/18 07:06:05;;;;;;;19.73;10.07;;;;;;;;;;5099721;28;20545;-60
2021/12/18 07:08:33;;;;;;;19.90;9.77;;;;;;;;;;5099730;28;20451;-61
2021/12/18 07:11:01;;;;;;;17.83;9.70;;;;;;;;;;5100826;28;20450;-62
2021/12/18 07:13:29;;;;;;;21.03;10.13;;;;;;;;;;5105301;28;20522;-62
2021/12/18 07:15:57;;;;;;;20.70;9.73;;;;;;;;;;5107768;28;20496;-62
2021/12/18 07:18:25;;;;;;;19.73;9.73;;;;;;;;;;5107781;28;20454;-62
2021/12/18 07:20:53;;;;;;;23.30;9.40;;;;;;;;;;5111643;28;20446;-62
2021/12/18 07:23:24;;;;;;;19.70;9.57;;;;;;;;;;5099199;28;20817;-62
2021/12/18 07:25:52;;;;;;;13.07;7.20;;;;;;;;;;5100565;28;20454;-61
2021/12/18 07:28:19;;;;;;;12.47;7.73;;;;;;;;;;5099655;28;20471;-62
2021/12/18 07:30:48;;;;;;;18.43;7.97;;;;;;;;;;5099623;28;20456;-62
2021/12/18 07:33:17;;;;;;;13.70;7.53;;;;;;;;;;5087567;28;20444;-62
2021/12/18 07:35:45;;;;;;;15.30;9.10;;;;;;;;;;5100649;28;20443;-62
2021/12/18 07:38:14;;;;;;;16.73;9.07;;;;;;;;;;5100009;28;20460;-62
2021/12/18 07:40:43;;;;;;;17.33;10.70;;;;;;;;;;5094924;28;20525;-62
2021/12/18 07:43:12;;;;;;;19.80;9.47;;;;;;;;;;5099302;28;20465;-62
2021/12/18 07:45:40;;;;;;;17.03;9.07;;;;;;;;;;5100117;28;20511;-62
2021/12/18 07:48:08;;;;;;;17.10;9.43;;;;;;;;;;5099981;28;20518;-62
2021/12/18 07:50:37;;;;;;;16.27;8.27;;;;;;;;;;5099362;28;20447;-63
2021/12/18 07:53:05;;;;;;;17.17;8.43;;;;;;;;;;5099842;28;20488;-63
2021/12/18 07:55:33;;;;;;;14.70;8.27;;;;;;;;;;5100125;28;20458;-62
2021/12/18 07:58:02;;;;;;;17.67;9.20;;;;;;;;;;5109081;28;20456;-63
2021/12/18 08:00:30;;;;;;;17.47;9.03;;;;;;;;;;5109466;28;20431;-63
2021/12/18 08:02:58;;;;;;;15.93;7.93;;;;;;;;;;5107842;28;20439;-63
2021/12/18 08:05:27;;;;;;;14.37;8.03;;;;;;;;;;5107466;28;20476;-62
2021/12/18 08:07:55;;;;;;;12.80;8.97;;;;;;;;;;5103637;28;20501;-63
2021/12/18 08:10:23;;;;;;;14.53;8.00;;;;;;;;;;5104889;28;20453;-63
2021/12/18 08:12:51;;;;;;;14.03;8.13;;;;;;;;;;5111869;28;20434;-63
2021/12/18 08:15:20;;;;;;;15.03;8.07;;;;;;;;;;5098508;28;20462;-63
2021/12/18 08:17:48;;;;;;;14.90;8.20;;;;;;;;;;5097741;28;20937;-64
2021/12/18 08:20:19;;;;;;;13.63;8.80;;;;;;;;;;5095874;28;20511;-64
2021/12/18 08:22:47;;;;;;;15.37;8.83;;;;;;;;;;5098076;28;20915;-64
2021/12/18 08:25:15;;;;;;;17.40;9.80;;;;;;;;;;5098541;28;20455;-63
2021/12/18 08:27:43;;;;;;;16.77;8.97;;;;;;;;;;5096765;28;20486;-63
2021/12/18 08:30:12;;;;;;;17.13;9.30;;;;;;;;;;5096974;28;20442;-63
2021/12/18 08:32:43;;;;;;;17.03;8.40;;;;;;;;;;5096833;28;20486;-65
2021/12/18 08:35:13;;;;;;;14.00;7.77;;;;;;;;;;5097405;28;20805;-64
2021/12/18 08:37:42;;;;;;;15.50;9.43;;;;;;;;;;5098000;28;20444;-64
2021/12/18 08:40:11;;;;;;;14.03;7.20;;;;;;;;;;5098090;28;20439;-64
2021/12/18 08:42:40;;;;;;;16.17;8.07;;;;;;;;;;5098091;28;20534;-65
2021/12/18 08:45:08;;;;;;;11.57;6.87;;;;;;;;;;5098579;28;20439;-64
2021/12/18 08:47:36;;;;;;;12.53;7.33;;;;;;;;;;5097316;28;20892;-64
2021/12/18 08:50:07;;;;;;;14.33;8.13;;;;;;;;;;5098649;28;20459;-64
2021/12/18 08:52:35;;;;;;;12.77;7.00;;;;;;;;;;5096113;28;20467;-64
2021/12/18 08:55:04;;;;;;;12.63;7.27;;;;;;;;;;5098558;28;20931;-64
2021/12/18 08:57:32;;;;;;;12.13;7.10;;;;;;;;;;5098466;28;20526;-64
2021/12/18 09:00:00;;;;;;;13.53;7.47;;;;;;;;;;5096881;28;20917;-64
2021/12/18 09:02:29;;;;;;;9.83;6.70;;;;;;;;;;5097207;28;20487;-64
2021/12/18 09:04:59;;;;;;;11.03;7.23;;;;;;;;;;5098234;28;20440;-64
2021/12/18 09:07:29;;;;;;;14.50;8.67;;;;;;;;;;5098207;28;20487;-64
2021/12/18 09:09:57;;;;;;;13.03;7.07;;;;;;;;;;5098185;28;20521;-64
2021/12/18 09:12:25;;;;;;;12.47;7.17;;;;;;;;;;5098507;28;20439;-64
2021/12/18 09:14:53;;;;;;;12.63;7.50;;;;;;;;;;5098003;28;20513;-65
2021/12/18 09:17:25;;;;;;;13.70;7.20;;;;;;;;;;5097739;28;20451;-64
2021/12/18 09:19:53;;;;;;;10.70;7.60;;;;;;;;;;5097868;28;20518;-65
2021/12/18 09:22:24;;;;;;;12.00;8.03;;;;;;;;;;5095783;28;20513;-64
2021/12/18 09:24:54;;;;;;;12.50;7.50;;;;;;;;;;5086315;28;20477;-64
2021/12/18 09:27:23;;;;;;;11.47;7.27;;;;;;;;;;5097953;28;20487;-64
2021/12/18 09:29:51;;;;;;;13.17;7.63;;;;;;;;;;5097576;28;20460;-64
2021/12/18 09:32:20;;;;;;;14.80;7.93;;;;;;;;;;5096783;28;20477;-64
2021/12/18 09:34:48;;;;;;;11.77;7.20;;;;;;;;;;5098019;28;20436;-64
2021/12/18 09:37:16;;;;;;;14.10;8.73;;;;;;;;;;5097952;28;20534;-64
2021/12/18 09:39:45;;;;;;;14.57;8.60;;;;;;;;;;5097832;28;20468;-64
2021/12/18 09:42:15;;;;;;;14.17;8.67;;;;;;;;;;5097450;28;20448;-64
2021/12/18 09:44:43;;;;;;;14.67;8.43;;;;;;;;;;5097811;28;20919;-64
2021/12/18 09:47:11;;;;;;;14.80;8.13;;;;;;;;;;5096519;28;20955;-64
2021/12/18 09:49:43;;;;;;;14.53;8.67;;;;;;;;;;5097463;28;20467;-64
2021/12/18 09:52:11;;;;;;;13.63;8.33;;;;;;;;;;5096757;28;20463;-64
2021/12/18 09:54:39;;;;;;;13.77;8.00;;;;;;;;;;5096647;28;20936;-64
2021/12/18 09:57:08;;;;;;;14.77;8.07;;;;;;;;;;5096345;28;20455;-64
2021/12/18 09:59:37;;;;;;;13.20;8.57;;;;;;;;;;5097972;28;20558;-64
2021/12/18 10:02:06;;;;;;;13.60;7.80;;;;;;;;;;5097400;28;20508;-64
2021/12/18 10:04:35;;;;;;;16.40;9.43;;;;;;;;;;5091102;28;20439;-64
2021/12/18 10:07:15;;;;;;;15.07;9.37;;;;;;;;;;5097041;28;20482;-64
2021/12/18 10:09:43;;;;;;;16.93;8.80;;;;;;;;;;5096260;28;20498;-65
2021/12/18 10:12:18;;;;;;;15.80;8.77;;;;;;;;;;5096079;28;20927;-64
2021/12/18 10:14:51;;;;;;;11.87;8.90;;;;;;;;;;5093630;28;20919;-64
2021/12/18 10:17:21;;;;;;;12.77;7.67;;;;;;;;;;5091363;28;20854;-63
2021/12/18 10:19:50;;;;;;;15.13;9.37;;;;;;;;;;5091902;28;20497;-64
2021/12/18 10:22:18;;;;;;;18.57;8.70;;;;;;;;;;5093708;28;20439;-64
2021/12/18 10:24:47;;;;;;;12.57;7.73;;;;;;;;;;5093935;28;20420;-64
2021/12/18 10:27:19;;;;;;;15.50;8.93;;;;;;;;;;5089801;28;20436;-64
2021/12/18 10:29:47;;;;;;;16.63;9.17;;;;;;;;;;5094018;28;20462;-65
2021/12/18 10:32:17;;;;;;;16.50;9.03;;;;;;;;;;5092170;28;20438;-65
2021/12/18 10:34:51;;;;;;;15.80;8.97;;;;;;;;;;5087415;28;20551;-65
2021/12/18 10:37:20;;;;;;;18.47;9.83;;;;;;;;;;5096804;28;20441;-64
2021/12/18 10:40:06;;;;;;;15.83;9.50;;;;;;;;;;5102122;28;20527;-64
2021/12/18 10:42:35;;;;;;;21.47;11.23;;;;;;;;;;5096199;28;20969;-64
2021/12/18 10:45:08;;;;;;;20.33;10.97;;;;;;;;;;5094497;28;20531;-64
2021/12/18 10:47:48;;;;;;;19.63;10.77;;;;;;;;;;5096435;28;20861;-64
2021/12/18 10:50:18;;;;;;;17.13;10.10;;;;;;;;;;5096091;28;20538;-64
2021/12/18 10:52:52;;;;;;;18.57;9.23;;;;;;;;;;5096592;28;20450;-64
2021/12/18 10:55:20;;;;;;;21.27;10.90;;;;;;;;;;5096884;28;20502;-64
2021/12/18 10:57:51;;;;;;;17.87;9.47;;;;;;;;;;5096468;28;20473;-64
2021/12/18 11:00:30;;;;;;;19.43;10.07;;;;;;;;;;5097247;28;20465;-64
2021/12/18 11:03:12;;;;;;;21.13;10.27;;;;;;;;;;5096950;28;20443;-64
2021/12/18 11:05:41;;;;;;;22.33;10.37;;;;;;;;;;5095423;28;20459;-64
2021/12/18 11:08:09;;;;;;;17.07;9.47;;;;;;;;;;5096591;28;20493;-64
2021/12/18 11:10:42;;;;;;;18.23;9.77;;;;;;;;;;5096825;28;20440;-64
2021/12/18 11:15:56;;;;;;;19.17;9.63;;;;;;;;;;5095794;28;20497;-64
2021/12/18 11:18:25;;;;;;;19.87;10.70;;;;;;;;;;5096639;28;21220;-64
2021/12/18 11:20:54;;;;;;;18.73;10.10;;;;;;;;;;5095861;28;20463;-64
2021/12/18 11:23:26;;;;;;;18.03;10.17;;;;;;;;;;5096951;28;20451;-64
2021/12/18 11:25:55;;;;;;;17.93;10.67;;;;;;;;;;5097381;28;20469;-64
2021/12/18 11:28:24;;;;;;;19.00;10.57;;;;;;;;;;5100161;28;20479;-64
2021/12/18 11:30:52;;;;;;;22.43;11.60;;;;;;;;;;5100527;28;20443;-64
2021/12/18 11:33:20;;;;;;;15.67;10.10;;;;;;;;;;5100416;28;20949;-64
2021/12/18 11:35:49;;;;;;;19.23;10.17;;;;;;;;;;5097786;28;20479;-64
2021/12/18 11:38:18;;;;;;;17.00;10.00;;;;;;;;;;5100074;28;20467;-64
2021/12/18 11:40:47;;;;;;;18.37;10.90;;;;;;;;;;5100596;28;20446;-64
2021/12/18 11:43:33;;;;;;;19.13;10.20;;;;;;;;;;5099875;28;20443;-64
2021/12/18 11:46:01;;;;;;;20.27;11.20;;;;;;;;;;5098941;28;20465;-64
2021/12/18 11:48:49;;;;;;;22.33;10.10;;;;;;;;;;5099855;28;20485;-64
2021/12/18 11:51:18;;;;;;;19.47;10.13;;;;;;;;;;5099024;28;20993;-64
2021/12/18 11:53:46;;;;;;;17.27;9.50;;;;;;;;;;5099754;28;20454;-64
2021/12/18 11:56:15;;;;;;;24.30;11.83;;;;;;;;;;5098323;28;20559;-64
2021/12/18 11:58:44;;;;;;;17.37;9.27;;;;;;;;;;5100007;28;20462;-64
2021/12/18 12:01:17;;;;;;;15.33;10.17;;;;;;;;;;5096914;28;20463;-65
2021/12/18 12:03:46;;;;;;;14.77;9.13;;;;;;;;;;5099790;28;20950;-64
2021/12/18 12:06:25;;;;;;;18.97;9.50;;;;;;;;;;5099319;28;20546;-64
2021/12/18 12:09:13;;;;;;;14.30;8.47;;;;;;;;;;5099411;28;20475;-64
2021/12/18 12:11:50;;;;;;;16.43;9.97;;;;;;;;;;5098033;28;20491;-64
2021/12/18 12:14:19;;;;;;;17.20;9.13;;;;;;;;;;5099651;28;20590;-64
2021/12/18 12:17:01;;;;;;;18.30;10.40;;;;;;;;;;5098967;28;20455;-64
2021/12/18 12:19:49;;;;;;;26.00;13.47;;;;;;;;;;5099344;28;20491;-64
2021/12/18 12:22:36;;;;;;;16.67;10.97;;;;;;;;;;5099204;28;20446;-64
2021/12/18 12:25:09;;;;;;;18.27;10.50;;;;;;;;;;5099600;28;20507;-64
2021/12/18 12:27:38;;;;;;;17.43;10.67;;;;;;;;;;5098584;28;20535;-64
2021/12/18 12:30:08;;;;;;;16.30;10.40;;;;;;;;;;5099127;28;20482;-64
2021/12/18 12:32:36;;;;;;;18.40;12.07;;;;;;;;;;5099796;28;20443;-64
2021/12/18 12:35:05;;;;;;;17.60;12.27;;;;;;;;;;5098139;28;20456;-63
2021/12/18 12:37:36;;;;;;;17.30;11.73;;;;;;;;;;5098396;28;20526;-63
2021/12/18 12:40:06;;;;;;;18.17;11.27;;;;;;;;;;5098694;28;20819;-63
2021/12/18 12:42:35;;;;;;;17.80;11.60;;;;;;;;;;5098003;28;20528;-63
2021/12/18 12:45:10;;;;;;;17.90;10.87;;;;;;;;;;5095798;28;20435;-64
2021/12/18 12:47:38;;;;;;;20.77;11.50;;;;;;;;;;5095096;28;20432;-64
2021/12/18 12:50:25;;;;;;;21.20;12.43;;;;;;;;;;5093632;28;20480;-63
2021/12/18 12:52:55;;;;;;;21.53;12.90;;;;;;;;;;5092592;28;20811;-64
2021/12/18 12:55:24;;;;;;;21.73;12.73;;;;;;;;;;5095965;28;20438;-62
2021/12/18 12:57:53;;;;;;;19.83;11.80;;;;;;;;;;5096034;28;20442;-61
2021/12/18 13:00:40;;;;;;;19.43;11.17;;;;;;;;;;5098316;28;20462;-62
2021/12/18 13:03:11;;;;;;;24.83;12.30;;;;;;;;;;5096396;28;20443;-62
2021/12/18 13:05:48;;;;;;;22.27;12.70;;;;;;;;;;5096165;28;20984;-61
2021/12/18 13:08:18;;;;;;;22.10;12.03;;;;;;;;;;5097047;28;20465;-62
2021/12/18 13:10:48;;;;;;;23.27;13.50;;;;;;;;;;5098969;28;20846;-61
2021/12/18 13:13:17;;;;;;;22.00;12.33;;;;;;;;;;5095779;28;20431;-61
2021/12/18 13:15:46;;;;;;;21.97;11.73;;;;;;;;;;5098497;28;20454;-61
2021/12/18 13:18:14;;;;;;;18.97;12.20;;;;;;;;;;5097921;28;20824;-62
2021/12/18 13:20:43;;;;;;;25.87;12.90;;;;;;;;;;5097808;28;20500;-61
2021/12/18 13:23:17;;;;;;;18.77;12.27;;;;;;;;;;5096400;28;20485;-61
2021/12/18 13:25:52;;;;;;;19.60;12.23;;;;;;;;;;5101182;28;20453;-61
2021/12/18 13:28:20;;;;;;;23.40;12.90;;;;;;;;;;5089778;28;20463;-64
2021/12/18 13:30:51;;;;;;;23.07;12.83;;;;;;;;;;5093772;28;20483;-64
2021/12/18 13:33:23;;;;;;;20.67;12.43;;;;;;;;;;5096009;28;20914;-67
2021/12/18 13:35:55;;;;;;;22.67;13.10;;;;;;;;;;5097712;28;20501;-67
2021/12/18 13:38:25;;;;;;;27.73;18.23;;;;;;;;;;5097473;28;20484;-67
2021/12/18 13:40:55;;;;;;;25.80;14.53;;;;;;;;;;5097991;28;20444;-67
2021/12/18 13:43:25;;;;;;;24.20;13.50;;;;;;;;;;5098146;28;20443;-66
2021/12/18 13:45:54;;;;;;;21.83;12.47;;;;;;;;;;5097116;28;20477;-66
2021/12/18 13:48:24;;;;;;;24.20;13.10;;;;;;;;;;5097357;28;20463;-67
2021/12/18 13:50:53;;;;;;;21.43;12.50;;;;;;;;;;5097515;28;20480;-67
2021/12/18 13:53:21;;;;;;;21.13;12.67;;;;;;;;;;5096704;28;20480;-66
2021/12/18 13:55:55;;;;;;;22.47;12.70;;;;;;;;;;5097534;28;21156;-66
2021/12/18 13:58:26;;;;;;;26.93;13.93;;;;;;;;;;5097567;28;20464;-66
2021/12/18 14:00:57;;;;;;;28.40;13.57;;;;;;;;;;5097904;28;20446;-67
2021/12/18 14:03:28;;;;;;;23.87;14.00;;;;;;;;;;5096842;28;20530;-66
2021/12/18 14:05:58;;;;;;;25.87;14.97;;;;;;;;;;5094637;28;20522;-67
2021/12/18 14:08:27;;;;;;;28.63;15.10;;;;;;;;;;5092641;28;20528;-67
2021/12/18 14:11:00;;;;;;;31.17;14.30;;;;;;;;;;5097732;28;20608;-67
2021/12/18 14:13:30;;;;;;;26.73;14.00;;;;;;;;;;5097479;28;20478;-67
2021/12/18 14:16:08;;;;;;;27.10;13.80;;;;;;;;;;5097859;28;20451;-67
2021/12/18 14:18:37;;;;;;;29.10;14.63;;;;;;;;;;5097623;28;20878;-67
2021/12/18 14:21:05;;;;;;;31.77;15.10;;;;;;;;;;5096955;28;21002;-67
2021/12/18 14:23:35;;;;;;;29.40;15.43;;;;;;;;;;5097278;28;20477;-67
2021/12/18 14:26:27;;;;;;;26.47;14.03;;;;;;;;;;5096688;28;20455;-66
2021/12/18 14:28:57;;;;;;;28.70;15.23;;;;;;;;;;5096903;28;21042;-66
2021/12/18 14:31:26;;;;;;;27.33;14.27;;;;;;;;;;5097187;28;21008;-66
2021/12/18 14:33:55;;;;;;;32.20;15.40;;;;;;;;;;5097478;28;20443;-66
2021/12/18 14:36:40;;;;;;;25.67;14.93;;;;;;;;;;5096748;28;20462;-66
2021/12/18 14:39:08;;;;;;;28.97;15.40;;;;;;;;;;5094288;28;20554;-67
2021/12/18 14:41:36;;;;;;;24.87;13.90;;;;;;;;;;5097298;28;20804;-66
2021/12/18 14:44:06;;;;;;;26.17;14.00;;;;;;;;;;5097357;28;20444;-66
2021/12/18 14:46:35;;;;;;;24.13;13.83;;;;;;;;;;5097145;28;20459;-67
2021/12/18 14:49:10;;;;;;;29.63;16.20;;;;;;;;;;5096404;28;20507;-67
2021/12/18 14:51:38;;;;;;;30.17;16.37;;;;;;;;;;5096991;28;20845;-66
2021/12/18 14:54:07;;;;;;;31.40;15.47;;;;;;;;;;5095999;28;20498;-66
2021/12/18 14:56:35;;;;;;;25.53;14.53;;;;;;;;;;5097320;28;20447;-67
2021/12/18 14:59:17;;;;;;;28.73;15.93;;;;;;;;;;5095925;28;20475;-67
2021/12/18 15:01:46;;;;;;;26.60;13.80;;;;;;;;;;5100624;28;20465;-67
2021/12/18 15:04:19;;;;;;;31.70;16.33;;;;;;;;;;5101273;28;20496;-67
2021/12/18 15:06:48;;;;;;;27.97;16.43;;;;;;;;;;5097936;28;20486;-67